sensor_id;sensor_type;location;lat;lon;timestamp;P1;durP1;ratioP1;P2;durP2;ratioP2
76073;SDS011;64776;42.636;24.358;2023-04-24T00:01:30;38.33;;;17.05;;
76073;SDS011;64776;42.636;24.358;2023-04-24T00:04:30;32.80;;;14.23;;
76073;SDS011;64776;42.636;24.358;2023-04-24T00:07:31;14.43;;;6.50;;
76073;SDS011;64776;42.636;24.358;2023-04-24T00:10:34;15.63;;;7.30;;
76073;SDS011;64776;42.636;24.358;2023-04-24T00:13:35;17.70;;;7.63;;
76073;SDS011;64776;42.636;24.358;2023-04-24T00:16:36;16.75;;;7.97;;
76073;SDS011;64776;42.636;24.358;2023-04-24T00:19:36;16.25;;;8.10;;
76073;SDS011;64776;42.636;24.358;2023-04-24T00:22:37;17.88;;;8.60;;
76073;SDS011;64776;42.636;24.358;2023-04-24T00:25:39;22.65;;;10.40;;
76073;SDS011;64776;42.636;24.358;2023-04-24T00:28:40;25.52;;;12.18;;
76073;SDS011;64776;42.636;24.358;2023-04-24T00:31:41;29.45;;;13.55;;
76073;SDS011;64776;42.636;24.358;2023-04-24T00:34:42;17.20;;;8.68;;
76073;SDS011;64776;42.636;24.358;2023-04-24T00:37:43;18.05;;;7.55;;
76073;SDS011;64776;42.636;24.358;2023-04-24T00:40:45;18.23;;;6.75;;
76073;SDS011;64776;42.636;24.358;2023-04-24T00:43:46;24.10;;;8.95;;
76073;SDS011;64776;42.636;24.358;2023-04-24T00:46:47;19.88;;;7.43;;
76073;SDS011;64776;42.636;24.358;2023-04-24T00:49:48;21.38;;;8.90;;
76073;SDS011;64776;42.636;24.358;2023-04-24T00:52:49;19.08;;;7.28;;
76073;SDS011;64776;42.636;24.358;2023-04-24T00:55:51;17.65;;;7.97;;
76073;SDS011;64776;42.636;24.358;2023-04-24T00:58:52;16.90;;;7.20;;
76073;SDS011;64776;42.636;24.358;2023-04-24T01:01:54;15.02;;;6.38;;
76073;SDS011;64776;42.636;24.358;2023-04-24T01:04:56;16.42;;;6.78;;
76073;SDS011;64776;42.636;24.358;2023-04-24T01:07:57;14.43;;;5.95;;
76073;SDS011;64776;42.636;24.358;2023-04-24T01:11:00;13.30;;;7.43;;
76073;SDS011;64776;42.636;24.358;2023-04-24T01:14:04;17.52;;;7.75;;
76073;SDS011;64776;42.636;24.358;2023-04-24T01:17:04;17.75;;;6.65;;
76073;SDS011;64776;42.636;24.358;2023-04-24T01:20:06;15.65;;;6.43;;
76073;SDS011;64776;42.636;24.358;2023-04-24T01:23:08;16.65;;;5.97;;
76073;SDS011;64776;42.636;24.358;2023-04-24T01:26:09;28.88;;;12.60;;
76073;SDS011;64776;42.636;24.358;2023-04-24T01:29:11;17.58;;;7.93;;
76073;SDS011;64776;42.636;24.358;2023-04-24T01:32:12;14.93;;;5.85;;
76073;SDS011;64776;42.636;24.358;2023-04-24T01:35:14;12.88;;;5.25;;
76073;SDS011;64776;42.636;24.358;2023-04-24T01:38:16;25.73;;;12.38;;
76073;SDS011;64776;42.636;24.358;2023-04-24T01:41:17;21.15;;;11.23;;
76073;SDS011;64776;42.636;24.358;2023-04-24T01:44:18;23.67;;;10.40;;
76073;SDS011;64776;42.636;24.358;2023-04-24T01:47:19;19.58;;;8.15;;
76073;SDS011;64776;42.636;24.358;2023-04-24T01:50:21;18.00;;;7.95;;
76073;SDS011;64776;42.636;24.358;2023-04-24T01:53:23;21.65;;;7.80;;
76073;SDS011;64776;42.636;24.358;2023-04-24T01:56:24;25.73;;;9.15;;
76073;SDS011;64776;42.636;24.358;2023-04-24T01:59:25;24.90;;;9.23;;
76073;SDS011;64776;42.636;24.358;2023-04-24T02:02:28;31.02;;;13.65;;
76073;SDS011;64776;42.636;24.358;2023-04-24T02:05:29;24.52;;;10.25;;
76073;SDS011;64776;42.636;24.358;2023-04-24T02:08:31;48.75;;;19.02;;
76073;SDS011;64776;42.636;24.358;2023-04-24T02:11:32;35.30;;;13.98;;
76073;SDS011;64776;42.636;24.358;2023-04-24T02:17:59;24.33;;;9.88;;
76073;SDS011;64776;42.636;24.358;2023-04-24T02:20:59;21.50;;;11.20;;
76073;SDS011;64776;42.636;24.358;2023-04-24T02:24:02;21.58;;;10.15;;
76073;SDS011;64776;42.636;24.358;2023-04-24T02:27:03;20.80;;;9.55;;
76073;SDS011;64776;42.636;24.358;2023-04-24T02:30:04;21.20;;;9.82;;
76073;SDS011;64776;42.636;24.358;2023-04-24T02:33:06;18.00;;;9.07;;
76073;SDS011;64776;42.636;24.358;2023-04-24T02:36:07;17.83;;;8.93;;
76073;SDS011;64776;42.636;24.358;2023-04-24T02:39:09;16.40;;;7.75;;
76073;SDS011;64776;42.636;24.358;2023-04-24T02:42:10;40.17;;;14.82;;
76073;SDS011;64776;42.636;24.358;2023-04-24T02:45:10;37.28;;;14.85;;
76073;SDS011;64776;42.636;24.358;2023-04-24T02:48:11;42.17;;;16.85;;
76073;SDS011;64776;42.636;24.358;2023-04-24T02:51:12;162.75;;;56.13;;
76073;SDS011;64776;42.636;24.358;2023-04-24T02:54:14;134.65;;;44.10;;
76073;SDS011;64776;42.636;24.358;2023-04-24T02:57:15;51.08;;;19.42;;
76073;SDS011;64776;42.636;24.358;2023-04-24T03:00:16;33.80;;;13.60;;
76073;SDS011;64776;42.636;24.358;2023-04-24T03:03:16;23.00;;;10.70;;
76073;SDS011;64776;42.636;24.358;2023-04-24T03:06:18;21.20;;;9.75;;
76073;SDS011;64776;42.636;24.358;2023-04-24T03:09:20;21.63;;;9.48;;
76073;SDS011;64776;42.636;24.358;2023-04-24T03:12:21;20.67;;;8.48;;
76073;SDS011;64776;42.636;24.358;2023-04-24T03:15:21;28.65;;;12.77;;
76073;SDS011;64776;42.636;24.358;2023-04-24T03:18:22;29.17;;;14.48;;
76073;SDS011;64776;42.636;24.358;2023-04-24T03:21:23;24.50;;;11.77;;
76073;SDS011;64776;42.636;24.358;2023-04-24T03:24:26;30.80;;;13.77;;
76073;SDS011;64776;42.636;24.358;2023-04-24T03:27:26;19.85;;;9.27;;
76073;SDS011;64776;42.636;24.358;2023-04-24T03:30:27;25.63;;;12.73;;
76073;SDS011;64776;42.636;24.358;2023-04-24T03:33:28;29.30;;;14.88;;
76073;SDS011;64776;42.636;24.358;2023-04-24T03:36:29;30.73;;;13.32;;
76073;SDS011;64776;42.636;24.358;2023-04-24T03:39:31;32.42;;;14.05;;
76073;SDS011;64776;42.636;24.358;2023-04-24T03:42:32;21.20;;;10.75;;
76073;SDS011;64776;42.636;24.358;2023-04-24T03:45:32;23.30;;;10.65;;
76073;SDS011;64776;42.636;24.358;2023-04-24T03:48:35;19.70;;;8.38;;
76073;SDS011;64776;42.636;24.358;2023-04-24T03:51:36;24.00;;;9.00;;
76073;SDS011;64776;42.636;24.358;2023-04-24T03:54:38;22.13;;;10.00;;
76073;SDS011;64776;42.636;24.358;2023-04-24T03:57:39;19.95;;;9.07;;
76073;SDS011;64776;42.636;24.358;2023-04-24T04:00:40;22.83;;;13.23;;
76073;SDS011;64776;42.636;24.358;2023-04-24T04:03:41;31.08;;;15.13;;
76073;SDS011;64776;42.636;24.358;2023-04-24T04:06:41;34.40;;;15.95;;
76073;SDS011;64776;42.636;24.358;2023-04-24T04:09:44;35.50;;;16.50;;
76073;SDS011;64776;42.636;24.358;2023-04-24T04:12:45;34.85;;;15.90;;
76073;SDS011;64776;42.636;24.358;2023-04-24T04:15:46;29.92;;;12.50;;
76073;SDS011;64776;42.636;24.358;2023-04-24T04:18:47;26.20;;;11.57;;
76073;SDS011;64776;42.636;24.358;2023-04-24T04:21:47;23.13;;;12.85;;
76073;SDS011;64776;42.636;24.358;2023-04-24T04:24:49;63.45;;;28.63;;
76073;SDS011;64776;42.636;24.358;2023-04-24T04:27:50;48.15;;;23.50;;
76073;SDS011;64776;42.636;24.358;2023-04-24T04:30:51;39.22;;;20.13;;
76073;SDS011;64776;42.636;24.358;2023-04-24T04:33:52;34.75;;;17.58;;
76073;SDS011;64776;42.636;24.358;2023-04-24T04:36:53;23.65;;;11.95;;
76073;SDS011;64776;42.636;24.358;2023-04-24T04:39:55;25.83;;;12.93;;
76073;SDS011;64776;42.636;24.358;2023-04-24T04:42:56;41.40;;;18.90;;
76073;SDS011;64776;42.636;24.358;2023-04-24T04:45:57;43.80;;;23.70;;
76073;SDS011;64776;42.636;24.358;2023-04-24T04:48:58;46.65;;;22.67;;
76073;SDS011;64776;42.636;24.358;2023-04-24T04:51:59;35.13;;;17.95;;
76073;SDS011;64776;42.636;24.358;2023-04-24T04:55:03;47.20;;;21.95;;
76073;SDS011;64776;42.636;24.358;2023-04-24T04:58:04;27.80;;;14.57;;
76073;SDS011;64776;42.636;24.358;2023-04-24T05:01:06;21.75;;;11.30;;
76073;SDS011;64776;42.636;24.358;2023-04-24T05:04:07;20.88;;;9.95;;
76073;SDS011;64776;42.636;24.358;2023-04-24T05:10:14;25.13;;;11.55;;
76073;SDS011;64776;42.636;24.358;2023-04-24T05:13:15;21.35;;;11.48;;
76073;SDS011;64776;42.636;24.358;2023-04-24T05:16:15;18.73;;;10.57;;
76073;SDS011;64776;42.636;24.358;2023-04-24T05:19:16;20.08;;;10.70;;
76073;SDS011;64776;42.636;24.358;2023-04-24T05:22:17;27.30;;;14.18;;
76073;SDS011;64776;42.636;24.358;2023-04-24T05:25:19;27.70;;;14.88;;
76073;SDS011;64776;42.636;24.358;2023-04-24T05:28:20;29.33;;;16.10;;
76073;SDS011;64776;42.636;24.358;2023-04-24T05:31:20;56.80;;;31.70;;
76073;SDS011;64776;42.636;24.358;2023-04-24T05:34:21;54.58;;;31.15;;
76073;SDS011;64776;42.636;24.358;2023-04-24T05:37:24;34.67;;;18.33;;
76073;SDS011;64776;42.636;24.358;2023-04-24T05:40:27;35.42;;;19.60;;
76073;SDS011;64776;42.636;24.358;2023-04-24T05:43:28;46.40;;;26.52;;
76073;SDS011;64776;42.636;24.358;2023-04-24T05:46:28;41.33;;;24.27;;
76073;SDS011;64776;42.636;24.358;2023-04-24T05:49:29;42.70;;;22.20;;
76073;SDS011;64776;42.636;24.358;2023-04-24T05:52:30;37.65;;;20.17;;
76073;SDS011;64776;42.636;24.358;2023-04-24T05:55:32;61.97;;;29.90;;
76073;SDS011;64776;42.636;24.358;2023-04-24T05:58:33;54.50;;;26.00;;
76073;SDS011;64776;42.636;24.358;2023-04-24T06:04:39;51.53;;;23.60;;
76073;SDS011;64776;42.636;24.358;2023-04-24T06:07:40;51.45;;;25.20;;
76073;SDS011;64776;42.636;24.358;2023-04-24T06:10:42;61.75;;;32.97;;
76073;SDS011;64776;42.636;24.358;2023-04-24T06:13:43;56.72;;;30.33;;
76073;SDS011;64776;42.636;24.358;2023-04-24T06:16:44;39.50;;;21.20;;
76073;SDS011;64776;42.636;24.358;2023-04-24T06:19:45;39.80;;;20.33;;
76073;SDS011;64776;42.636;24.358;2023-04-24T06:22:46;39.22;;;21.17;;
76073;SDS011;64776;42.636;24.358;2023-04-24T06:25:48;58.55;;;28.33;;
76073;SDS011;64776;42.636;24.358;2023-04-24T06:28:49;66.20;;;34.95;;
76073;SDS011;64776;42.636;24.358;2023-04-24T06:31:50;46.95;;;25.83;;
76073;SDS011;64776;42.636;24.358;2023-04-24T06:34:51;42.65;;;21.80;;
76073;SDS011;64776;42.636;24.358;2023-04-24T06:37:51;48.10;;;25.30;;
76073;SDS011;64776;42.636;24.358;2023-04-24T06:40:53;46.88;;;27.17;;
76073;SDS011;64776;42.636;24.358;2023-04-24T06:43:54;49.05;;;27.90;;
76073;SDS011;64776;42.636;24.358;2023-04-24T06:46:55;50.67;;;24.90;;
76073;SDS011;64776;42.636;24.358;2023-04-24T06:49:56;59.38;;;25.50;;
76073;SDS011;64776;42.636;24.358;2023-04-24T06:52:57;55.58;;;23.15;;
76073;SDS011;64776;42.636;24.358;2023-04-24T06:55:59;36.78;;;19.35;;
76073;SDS011;64776;42.636;24.358;2023-04-24T06:59:06;29.05;;;13.60;;
76073;SDS011;64776;42.636;24.358;2023-04-24T07:02:07;19.80;;;10.55;;
76073;SDS011;64776;42.636;24.358;2023-04-24T07:05:08;32.78;;;18.90;;
76073;SDS011;64776;42.636;24.358;2023-04-24T07:08:09;23.85;;;13.10;;
76073;SDS011;64776;42.636;24.358;2023-04-24T07:11:11;17.65;;;9.00;;
76073;SDS011;64776;42.636;24.358;2023-04-24T07:14:12;19.45;;;10.50;;
76073;SDS011;64776;42.636;24.358;2023-04-24T07:17:13;14.45;;;8.23;;
76073;SDS011;64776;42.636;24.358;2023-04-24T07:20:14;26.50;;;10.10;;
76073;SDS011;64776;42.636;24.358;2023-04-24T07:23:15;22.75;;;9.18;;
76073;SDS011;64776;42.636;24.358;2023-04-24T07:26:17;13.95;;;7.53;;
76073;SDS011;64776;42.636;24.358;2023-04-24T07:29:18;11.30;;;5.32;;
76073;SDS011;64776;42.636;24.358;2023-04-24T07:32:19;19.58;;;9.27;;
76073;SDS011;64776;42.636;24.358;2023-04-24T07:35:20;32.67;;;13.25;;
76073;SDS011;64776;42.636;24.358;2023-04-24T07:38:21;23.02;;;9.93;;
76073;SDS011;64776;42.636;24.358;2023-04-24T07:41:23;28.80;;;11.45;;
76073;SDS011;64776;42.636;24.358;2023-04-24T07:44:24;46.05;;;21.02;;
76073;SDS011;64776;42.636;24.358;2023-04-24T07:47:25;34.92;;;17.58;;
76073;SDS011;64776;42.636;24.358;2023-04-24T07:50:26;25.60;;;13.65;;
76073;SDS011;64776;42.636;24.358;2023-04-24T07:53:27;32.53;;;14.90;;
76073;SDS011;64776;42.636;24.358;2023-04-24T07:56:29;30.98;;;15.80;;
76073;SDS011;64776;42.636;24.358;2023-04-24T07:59:30;63.72;;;27.73;;
76073;SDS011;64776;42.636;24.358;2023-04-24T08:02:31;24.40;;;12.82;;
76073;SDS011;64776;42.636;24.358;2023-04-24T08:05:32;35.40;;;17.55;;
76073;SDS011;64776;42.636;24.358;2023-04-24T08:08:33;42.60;;;20.58;;
76073;SDS011;64776;42.636;24.358;2023-04-24T08:11:35;17.80;;;8.25;;
76073;SDS011;64776;42.636;24.358;2023-04-24T08:14:36;21.45;;;9.45;;
76073;SDS011;64776;42.636;24.358;2023-04-24T08:17:37;26.52;;;12.00;;
76073;SDS011;64776;42.636;24.358;2023-04-24T08:20:37;28.27;;;15.00;;
76073;SDS011;64776;42.636;24.358;2023-04-24T08:23:38;36.72;;;20.00;;
76073;SDS011;64776;42.636;24.358;2023-04-24T08:26:42;17.63;;;9.55;;
76073;SDS011;64776;42.636;24.358;2023-04-24T08:29:42;13.27;;;6.05;;
76073;SDS011;64776;42.636;24.358;2023-04-24T08:32:44;12.40;;;6.13;;
76073;SDS011;64776;42.636;24.358;2023-04-24T08:35:45;18.42;;;8.35;;
76073;SDS011;64776;42.636;24.358;2023-04-24T08:38:45;15.20;;;6.93;;
76073;SDS011;64776;42.636;24.358;2023-04-24T08:41:48;11.50;;;3.92;;
76073;SDS011;64776;42.636;24.358;2023-04-24T08:44:49;8.90;;;4.05;;
76073;SDS011;64776;42.636;24.358;2023-04-24T08:47:50;7.50;;;4.07;;
76073;SDS011;64776;42.636;24.358;2023-04-24T08:50:52;9.85;;;3.97;;
76073;SDS011;64776;42.636;24.358;2023-04-24T08:53:54;9.50;;;4.85;;
76073;SDS011;64776;42.636;24.358;2023-04-24T08:56:58;11.85;;;5.40;;
76073;SDS011;64776;42.636;24.358;2023-04-24T09:00:00;10.63;;;5.63;;
76073;SDS011;64776;42.636;24.358;2023-04-24T09:03:02;8.95;;;3.58;;
76073;SDS011;64776;42.636;24.358;2023-04-24T09:06:06;15.30;;;7.30;;
76073;SDS011;64776;42.636;24.358;2023-04-24T09:09:12;8.05;;;3.60;;
76073;SDS011;64776;42.636;24.358;2023-04-24T09:12:15;14.13;;;6.22;;
76073;SDS011;64776;42.636;24.358;2023-04-24T09:15:16;8.18;;;3.67;;
76073;SDS011;64776;42.636;24.358;2023-04-24T09:18:17;10.15;;;3.97;;
76073;SDS011;64776;42.636;24.358;2023-04-24T09:21:20;11.73;;;4.28;;
76073;SDS011;64776;42.636;24.358;2023-04-24T09:24:21;10.35;;;4.55;;
76073;SDS011;64776;42.636;24.358;2023-04-24T09:27:24;7.63;;;4.03;;
76073;SDS011;64776;42.636;24.358;2023-04-24T09:30:25;53.00;;;22.90;;
76073;SDS011;64776;42.636;24.358;2023-04-24T09:33:27;14.02;;;5.57;;
76073;SDS011;64776;42.636;24.358;2023-04-24T09:36:28;9.98;;;4.18;;
76073;SDS011;64776;42.636;24.358;2023-04-24T09:39:30;14.60;;;7.97;;
76073;SDS011;64776;42.636;24.358;2023-04-24T09:42:32;11.30;;;5.95;;
76073;SDS011;64776;42.636;24.358;2023-04-24T09:45:35;14.07;;;6.72;;
76073;SDS011;64776;42.636;24.358;2023-04-24T09:48:37;20.45;;;8.75;;
76073;SDS011;64776;42.636;24.358;2023-04-24T09:51:38;17.58;;;7.85;;
76073;SDS011;64776;42.636;24.358;2023-04-24T09:54:39;19.15;;;9.02;;
76073;SDS011;64776;42.636;24.358;2023-04-24T09:57:53;15.00;;;7.53;;
76073;SDS011;64776;42.636;24.358;2023-04-24T10:00:55;14.00;;;6.95;;
76073;SDS011;64776;42.636;24.358;2023-04-24T10:03:57;11.65;;;5.30;;
76073;SDS011;64776;42.636;24.358;2023-04-24T10:06:57;11.32;;;5.97;;
76073;SDS011;64776;42.636;24.358;2023-04-24T10:09:58;14.48;;;6.35;;
76073;SDS011;64776;42.636;24.358;2023-04-24T10:13:01;16.73;;;9.00;;
76073;SDS011;64776;42.636;24.358;2023-04-24T10:16:02;9.95;;;4.15;;
76073;SDS011;64776;42.636;24.358;2023-04-24T10:19:04;9.98;;;4.80;;
76073;SDS011;64776;42.636;24.358;2023-04-24T10:22:05;13.50;;;7.78;;
76073;SDS011;64776;42.636;24.358;2023-04-24T10:25:07;10.18;;;3.97;;
76073;SDS011;64776;42.636;24.358;2023-04-24T10:28:10;11.77;;;6.07;;
76073;SDS011;64776;42.636;24.358;2023-04-24T10:31:12;10.70;;;4.32;;
76073;SDS011;64776;42.636;24.358;2023-04-24T10:34:14;6.30;;;2.78;;
76073;SDS011;64776;42.636;24.358;2023-04-24T10:37:16;11.88;;;6.97;;
76073;SDS011;64776;42.636;24.358;2023-04-24T10:40:18;7.82;;;3.95;;
76073;SDS011;64776;42.636;24.358;2023-04-24T10:43:26;18.05;;;9.05;;
76073;SDS011;64776;42.636;24.358;2023-04-24T10:46:27;9.48;;;5.07;;
76073;SDS011;64776;42.636;24.358;2023-04-24T10:49:29;11.55;;;5.70;;
76073;SDS011;64776;42.636;24.358;2023-04-24T10:52:43;15.93;;;8.15;;
76073;SDS011;64776;42.636;24.358;2023-04-24T10:55:46;10.30;;;3.95;;
76073;SDS011;64776;42.636;24.358;2023-04-24T10:58:51;6.88;;;3.55;;
76073;SDS011;64776;42.636;24.358;2023-04-24T11:01:54;12.82;;;6.50;;
76073;SDS011;64776;42.636;24.358;2023-04-24T11:04:56;13.30;;;6.03;;
76073;SDS011;64776;42.636;24.358;2023-04-24T11:08:12;13.63;;;6.88;;
76073;SDS011;64776;42.636;24.358;2023-04-24T11:11:14;15.23;;;9.15;;
76073;SDS011;64776;42.636;24.358;2023-04-24T11:14:18;14.75;;;6.20;;
76073;SDS011;64776;42.636;24.358;2023-04-24T11:17:27;14.85;;;6.63;;
76073;SDS011;64776;42.636;24.358;2023-04-24T11:20:31;11.40;;;5.47;;
76073;SDS011;64776;42.636;24.358;2023-04-24T11:23:35;16.05;;;5.72;;
76073;SDS011;64776;42.636;24.358;2023-04-24T11:29:40;13.50;;;5.25;;
76073;SDS011;64776;42.636;24.358;2023-04-24T11:32:42;11.45;;;5.72;;
76073;SDS011;64776;42.636;24.358;2023-04-24T11:35:43;15.50;;;6.95;;
76073;SDS011;64776;42.636;24.358;2023-04-24T11:38:44;17.07;;;7.23;;
76073;SDS011;64776;42.636;24.358;2023-04-24T11:45:48;26.90;;;11.15;;
76073;SDS011;64776;42.636;24.358;2023-04-24T11:48:57;28.02;;;13.30;;
76073;SDS011;64776;42.636;24.358;2023-04-24T11:51:59;12.93;;;6.40;;
76073;SDS011;64776;42.636;24.358;2023-04-24T11:55:00;23.33;;;15.20;;
76073;SDS011;64776;42.636;24.358;2023-04-24T11:58:01;13.82;;;7.47;;
76073;SDS011;64776;42.636;24.358;2023-04-24T12:01:03;17.02;;;8.65;;
76073;SDS011;64776;42.636;24.358;2023-04-24T12:04:04;17.17;;;9.15;;
76073;SDS011;64776;42.636;24.358;2023-04-24T12:07:05;19.08;;;11.05;;
76073;SDS011;64776;42.636;24.358;2023-04-24T12:10:07;14.95;;;7.80;;
76073;SDS011;64776;42.636;24.358;2023-04-24T12:13:09;22.23;;;12.27;;
76073;SDS011;64776;42.636;24.358;2023-04-24T12:16:11;27.20;;;13.95;;
76073;SDS011;64776;42.636;24.358;2023-04-24T12:19:12;37.80;;;19.58;;
76073;SDS011;64776;42.636;24.358;2023-04-24T12:22:18;13.65;;;7.82;;
76073;SDS011;64776;42.636;24.358;2023-04-24T12:25:19;26.17;;;15.40;;
76073;SDS011;64776;42.636;24.358;2023-04-24T12:28:21;9.70;;;4.70;;
76073;SDS011;64776;42.636;24.358;2023-04-24T12:31:23;11.32;;;5.47;;
76073;SDS011;64776;42.636;24.358;2023-04-24T12:34:24;10.00;;;4.80;;
76073;SDS011;64776;42.636;24.358;2023-04-24T12:37:31;12.02;;;6.60;;
76073;SDS011;64776;42.636;24.358;2023-04-24T12:40:33;13.90;;;7.82;;
76073;SDS011;64776;42.636;24.358;2023-04-24T12:43:34;11.35;;;6.18;;
76073;SDS011;64776;42.636;24.358;2023-04-24T12:46:37;11.00;;;5.28;;
76073;SDS011;64776;42.636;24.358;2023-04-24T12:49:37;19.13;;;8.82;;
76073;SDS011;64776;42.636;24.358;2023-04-24T12:52:38;22.23;;;9.05;;
76073;SDS011;64776;42.636;24.358;2023-04-24T12:55:39;19.52;;;9.43;;
76073;SDS011;64776;42.636;24.358;2023-04-24T12:58:40;13.73;;;6.70;;
76073;SDS011;64776;42.636;24.358;2023-04-24T13:01:42;21.42;;;11.07;;
76073;SDS011;64776;42.636;24.358;2023-04-24T13:04:43;19.75;;;10.27;;
76073;SDS011;64776;42.636;24.358;2023-04-24T13:07:45;19.83;;;7.88;;
76073;SDS011;64776;42.636;24.358;2023-04-24T13:10:45;19.88;;;9.80;;
76073;SDS011;64776;42.636;24.358;2023-04-24T13:13:46;18.88;;;9.48;;
76073;SDS011;64776;42.636;24.358;2023-04-24T13:16:49;16.33;;;8.32;;
76073;SDS011;64776;42.636;24.358;2023-04-24T13:19:50;15.93;;;8.13;;
76073;SDS011;64776;42.636;24.358;2023-04-24T13:22:51;13.30;;;5.72;;
76073;SDS011;64776;42.636;24.358;2023-04-24T13:25:53;10.00;;;6.15;;
76073;SDS011;64776;42.636;24.358;2023-04-24T13:28:54;14.25;;;6.60;;
76073;SDS011;64776;42.636;24.358;2023-04-24T13:31:56;15.35;;;7.57;;
76073;SDS011;64776;42.636;24.358;2023-04-24T13:34:57;15.00;;;6.90;;
76073;SDS011;64776;42.636;24.358;2023-04-24T13:37:58;12.95;;;6.45;;
76073;SDS011;64776;42.636;24.358;2023-04-24T13:40:58;12.80;;;6.43;;
76073;SDS011;64776;42.636;24.358;2023-04-24T13:44:00;26.63;;;12.80;;
76073;SDS011;64776;42.636;24.358;2023-04-24T13:47:02;19.33;;;8.27;;
76073;SDS011;64776;42.636;24.358;2023-04-24T13:50:04;43.28;;;18.30;;
76073;SDS011;64776;42.636;24.358;2023-04-24T13:53:05;14.15;;;6.72;;
76073;SDS011;64776;42.636;24.358;2023-04-24T13:56:06;20.40;;;8.68;;
76073;SDS011;64776;42.636;24.358;2023-04-24T13:59:07;19.88;;;9.10;;
76073;SDS011;64776;42.636;24.358;2023-04-24T14:02:34;27.58;;;12.25;;
76073;SDS011;64776;42.636;24.358;2023-04-24T14:05:35;31.75;;;14.88;;
76073;SDS011;64776;42.636;24.358;2023-04-24T14:08:35;40.45;;;19.58;;
76073;SDS011;64776;42.636;24.358;2023-04-24T14:11:36;30.67;;;18.02;;
76073;SDS011;64776;42.636;24.358;2023-04-24T14:14:37;44.65;;;26.77;;
76073;SDS011;64776;42.636;24.358;2023-04-24T14:17:39;39.03;;;21.42;;
76073;SDS011;64776;42.636;24.358;2023-04-24T14:20:40;36.22;;;18.25;;
76073;SDS011;64776;42.636;24.358;2023-04-24T14:23:41;22.35;;;10.23;;
76073;SDS011;64776;42.636;24.358;2023-04-24T14:26:42;28.45;;;14.93;;
76073;SDS011;64776;42.636;24.358;2023-04-24T14:29:42;19.42;;;10.05;;
76073;SDS011;64776;42.636;24.358;2023-04-24T14:32:45;20.00;;;11.35;;
76073;SDS011;64776;42.636;24.358;2023-04-24T14:35:46;21.35;;;12.25;;
76073;SDS011;64776;42.636;24.358;2023-04-24T14:38:47;21.20;;;11.20;;
76073;SDS011;64776;42.636;24.358;2023-04-24T14:41:47;23.77;;;16.17;;
76073;SDS011;64776;42.636;24.358;2023-04-24T14:44:48;29.02;;;16.02;;
76073;SDS011;64776;42.636;24.358;2023-04-24T14:47:50;24.45;;;14.32;;
76073;SDS011;64776;42.636;24.358;2023-04-24T14:50:51;34.47;;;16.80;;
76073;SDS011;64776;42.636;24.358;2023-04-24T14:53:52;35.05;;;18.45;;
76073;SDS011;64776;42.636;24.358;2023-04-24T14:56:54;16.98;;;9.45;;
76073;SDS011;64776;42.636;24.358;2023-04-24T14:59:54;19.67;;;11.05;;
76073;SDS011;64776;42.636;24.358;2023-04-24T15:02:57;17.90;;;10.88;;
76073;SDS011;64776;42.636;24.358;2023-04-24T15:05:57;17.88;;;9.48;;
76073;SDS011;64776;42.636;24.358;2023-04-24T15:08:58;19.90;;;11.38;;
76073;SDS011;64776;42.636;24.358;2023-04-24T15:11:59;22.77;;;12.60;;
76073;SDS011;64776;42.636;24.358;2023-04-24T15:15:00;25.00;;;15.18;;
76073;SDS011;64776;42.636;24.358;2023-04-24T15:18:03;31.35;;;15.90;;
76073;SDS011;64776;42.636;24.358;2023-04-24T15:21:04;13.13;;;7.57;;
76073;SDS011;64776;42.636;24.358;2023-04-24T15:24:05;12.60;;;6.93;;
76073;SDS011;64776;42.636;24.358;2023-04-24T15:27:09;23.60;;;11.10;;
76073;SDS011;64776;42.636;24.358;2023-04-24T15:30:10;20.30;;;11.00;;
76073;SDS011;64776;42.636;24.358;2023-04-24T15:33:14;89.90;;;40.67;;
76073;SDS011;64776;42.636;24.358;2023-04-24T15:36:14;111.53;;;51.95;;
76073;SDS011;64776;42.636;24.358;2023-04-24T15:39:15;377.58;;;166.30;;
76073;SDS011;64776;42.636;24.358;2023-04-24T15:42:16;391.10;;;184.88;;
76073;SDS011;64776;42.636;24.358;2023-04-24T15:45:17;40.03;;;18.55;;
76073;SDS011;64776;42.636;24.358;2023-04-24T15:48:22;31.15;;;19.10;;
76073;SDS011;64776;42.636;24.358;2023-04-24T15:51:23;30.65;;;16.55;;
76073;SDS011;64776;42.636;24.358;2023-04-24T15:54:25;36.85;;;19.58;;
76073;SDS011;64776;42.636;24.358;2023-04-24T15:57:26;42.40;;;23.48;;
76073;SDS011;64776;42.636;24.358;2023-04-24T16:00:27;26.52;;;15.18;;
76073;SDS011;64776;42.636;24.358;2023-04-24T16:03:29;64.38;;;37.40;;
76073;SDS011;64776;42.636;24.358;2023-04-24T16:06:30;17.58;;;9.50;;
76073;SDS011;64776;42.636;24.358;2023-04-24T16:09:30;13.38;;;6.93;;
76073;SDS011;64776;42.636;24.358;2023-04-24T16:12:31;27.83;;;15.18;;
76073;SDS011;64776;42.636;24.358;2023-04-24T16:15:32;16.00;;;9.80;;
76073;SDS011;64776;42.636;24.358;2023-04-24T16:18:35;38.03;;;21.50;;
76073;SDS011;64776;42.636;24.358;2023-04-24T16:21:36;29.95;;;18.58;;
76073;SDS011;64776;42.636;24.358;2023-04-24T16:24:36;19.08;;;11.88;;
76073;SDS011;64776;42.636;24.358;2023-04-24T16:27:37;19.40;;;12.07;;
76073;SDS011;64776;42.636;24.358;2023-04-24T16:30:38;28.60;;;16.48;;
76073;SDS011;64776;42.636;24.358;2023-04-24T16:33:40;36.38;;;22.75;;
76073;SDS011;64776;42.636;24.358;2023-04-24T16:36:41;36.20;;;19.42;;
76073;SDS011;64776;42.636;24.358;2023-04-24T16:39:42;22.75;;;13.00;;
76073;SDS011;64776;42.636;24.358;2023-04-24T16:42:43;23.67;;;14.45;;
76073;SDS011;64776;42.636;24.358;2023-04-24T16:45:44;26.00;;;13.63;;
76073;SDS011;64776;42.636;24.358;2023-04-24T16:48:46;27.77;;;15.05;;
76073;SDS011;64776;42.636;24.358;2023-04-24T16:51:47;50.60;;;30.02;;
76073;SDS011;64776;42.636;24.358;2023-04-24T16:54:48;27.45;;;16.90;;
76073;SDS011;64776;42.636;24.358;2023-04-24T16:57:49;21.85;;;13.57;;
76073;SDS011;64776;42.636;24.358;2023-04-24T17:00:50;32.20;;;23.52;;
76073;SDS011;64776;42.636;24.358;2023-04-24T17:03:52;26.92;;;17.98;;
76073;SDS011;64776;42.636;24.358;2023-04-24T17:06:53;27.65;;;17.35;;
76073;SDS011;64776;42.636;24.358;2023-04-24T17:09:54;24.35;;;16.25;;
76073;SDS011;64776;42.636;24.358;2023-04-24T17:12:55;23.13;;;14.15;;
76073;SDS011;64776;42.636;24.358;2023-04-24T17:15:56;45.38;;;23.30;;
76073;SDS011;64776;42.636;24.358;2023-04-24T17:18:58;133.73;;;62.03;;
76073;SDS011;64776;42.636;24.358;2023-04-24T17:21:59;82.72;;;40.63;;
76073;SDS011;64776;42.636;24.358;2023-04-24T17:25:00;59.10;;;31.27;;
76073;SDS011;64776;42.636;24.358;2023-04-24T17:28:00;44.78;;;25.95;;
76073;SDS011;64776;42.636;24.358;2023-04-24T17:31:01;45.83;;;24.55;;
76073;SDS011;64776;42.636;24.358;2023-04-24T17:34:04;35.28;;;20.02;;
76073;SDS011;64776;42.636;24.358;2023-04-24T17:37:05;28.58;;;14.23;;
76073;SDS011;64776;42.636;24.358;2023-04-24T17:40:06;30.80;;;16.17;;
76073;SDS011;64776;42.636;24.358;2023-04-24T17:43:07;54.90;;;27.75;;
76073;SDS011;64776;42.636;24.358;2023-04-24T17:46:08;61.90;;;34.00;;
76073;SDS011;64776;42.636;24.358;2023-04-24T17:49:12;37.50;;;21.02;;
76073;SDS011;64776;42.636;24.358;2023-04-24T17:52:13;37.88;;;20.30;;